sensor_id;sensor_type;location;lat;lon;timestamp;P1;durP1;ratioP1;P2;durP2;ratioP2
74044;SDS011;62389;51.412;5.436;2023-05-13T00:01:05;10.13;;;6.85;;
74044;SDS011;62389;51.412;5.436;2023-05-13T00:03:31;9.07;;;7.13;;
74044;SDS011;62389;51.412;5.436;2023-05-13T00:05:57;8.65;;;7.03;;
74044;SDS011;62389;51.412;5.436;2023-05-13T00:08:22;9.60;;;6.95;;
74044;SDS011;62389;51.412;5.436;2023-05-13T00:10:48;10.20;;;7.13;;
74044;SDS011;62389;51.412;5.436;2023-05-13T00:13:13;11.05;;;6.97;;
74044;SDS011;62389;51.412;5.436;2023-05-13T00:15:38;9.45;;;6.95;;
74044;SDS011;62389;51.412;5.436;2023-05-13T00:18:04;9.38;;;6.10;;
74044;SDS011;62389;51.412;5.436;2023-05-13T00:20:30;10.60;;;6.55;;
74044;SDS011;62389;51.412;5.436;2023-05-13T00:22:55;10.25;;;6.50;;
74044;SDS011;62389;51.412;5.436;2023-05-13T00:25:21;10.70;;;7.05;;
74044;SDS011;62389;51.412;5.436;2023-05-13T00:27:46;8.30;;;6.25;;
74044;SDS011;62389;51.412;5.436;2023-05-13T00:30:11;8.88;;;6.78;;
74044;SDS011;62389;51.412;5.436;2023-05-13T00:32:37;9.35;;;6.43;;
74044;SDS011;62389;51.412;5.436;2023-05-13T00:35:02;11.13;;;7.05;;
74044;SDS011;62389;51.412;5.436;2023-05-13T00:37:28;14.15;;;6.78;;
74044;SDS011;62389;51.412;5.436;2023-05-13T00:39:53;9.02;;;6.18;;
74044;SDS011;62389;51.412;5.436;2023-05-13T00:42:18;8.65;;;6.40;;
74044;SDS011;62389;51.412;5.436;2023-05-13T00:44:44;8.57;;;6.47;;
74044;SDS011;62389;51.412;5.436;2023-05-13T00:47:10;12.43;;;6.80;;
74044;SDS011;62389;51.412;5.436;2023-05-13T00:49:36;8.52;;;6.65;;
74044;SDS011;62389;51.412;5.436;2023-05-13T00:52:01;12.32;;;6.85;;
74044;SDS011;62389;51.412;5.436;2023-05-13T00:54:27;10.10;;;6.82;;
74044;SDS011;62389;51.412;5.436;2023-05-13T00:56:53;9.18;;;6.43;;
74044;SDS011;62389;51.412;5.436;2023-05-13T00:59:21;10.23;;;6.43;;
74044;SDS011;62389;51.412;5.436;2023-05-13T01:10:06;10.30;;;6.00;;
74044;SDS011;62389;51.412;5.436;2023-05-13T01:12:40;9.15;;;6.13;;
74044;SDS011;62389;51.412;5.436;2023-05-13T01:15:08;9.02;;;6.80;;
74044;SDS011;62389;51.412;5.436;2023-05-13T01:17:39;9.15;;;6.50;;
74044;SDS011;62389;51.412;5.436;2023-05-13T01:20:08;7.85;;;6.28;;
74044;SDS011;62389;51.412;5.436;2023-05-13T01:22:34;7.88;;;5.85;;
74044;SDS011;62389;51.412;5.436;2023-05-13T01:24:59;10.30;;;6.55;;
74044;SDS011;62389;51.412;5.436;2023-05-13T01:27:25;10.25;;;6.65;;
74044;SDS011;62389;51.412;5.436;2023-05-13T01:29:50;8.43;;;6.18;;
74044;SDS011;62389;51.412;5.436;2023-05-13T01:32:17;10.50;;;6.45;;
74044;SDS011;62389;51.412;5.436;2023-05-13T01:34:44;10.07;;;6.68;;
74044;SDS011;62389;51.412;5.436;2023-05-13T01:37:10;11.23;;;6.82;;
74044;SDS011;62389;51.412;5.436;2023-05-13T01:39:36;8.60;;;6.55;;
74044;SDS011;62389;51.412;5.436;2023-05-13T01:42:02;9.45;;;6.20;;
74044;SDS011;62389;51.412;5.436;2023-05-13T01:44:28;8.80;;;6.40;;
74044;SDS011;62389;51.412;5.436;2023-05-13T01:46:53;10.02;;;7.25;;
74044;SDS011;62389;51.412;5.436;2023-05-13T01:49:19;10.63;;;6.82;;
74044;SDS011;62389;51.412;5.436;2023-05-13T01:51:44;11.32;;;6.93;;
74044;SDS011;62389;51.412;5.436;2023-05-13T01:54:09;9.57;;;6.40;;
74044;SDS011;62389;51.412;5.436;2023-05-13T01:56:35;9.25;;;6.90;;
74044;SDS011;62389;51.412;5.436;2023-05-13T01:59:00;11.40;;;7.75;;
74044;SDS011;62389;51.412;5.436;2023-05-13T02:01:26;9.80;;;7.00;;
74044;SDS011;62389;51.412;5.436;2023-05-13T02:03:51;10.40;;;7.35;;
74044;SDS011;62389;51.412;5.436;2023-05-13T02:06:17;10.73;;;7.32;;
74044;SDS011;62389;51.412;5.436;2023-05-13T02:08:43;10.70;;;7.53;;
74044;SDS011;62389;51.412;5.436;2023-05-13T02:11:08;9.35;;;7.32;;
74044;SDS011;62389;51.412;5.436;2023-05-13T02:13:34;9.02;;;6.82;;
74044;SDS011;62389;51.412;5.436;2023-05-13T02:15:59;11.20;;;7.50;;
74044;SDS011;62389;51.412;5.436;2023-05-13T02:18:25;12.75;;;7.45;;
74044;SDS011;62389;51.412;5.436;2023-05-13T02:20:50;9.60;;;7.65;;
74044;SDS011;62389;51.412;5.436;2023-05-13T02:23:16;10.80;;;7.82;;
74044;SDS011;62389;51.412;5.436;2023-05-13T02:25:41;9.13;;;7.57;;
74044;SDS011;62389;51.412;5.436;2023-05-13T02:28:07;11.15;;;8.25;;
74044;SDS011;62389;51.412;5.436;2023-05-13T02:30:33;11.52;;;8.27;;
74044;SDS011;62389;51.412;5.436;2023-05-13T02:32:59;13.05;;;9.35;;
74044;SDS011;62389;51.412;5.436;2023-05-13T02:35:25;11.32;;;8.38;;
74044;SDS011;62389;51.412;5.436;2023-05-13T02:37:53;12.05;;;8.50;;
74044;SDS011;62389;51.412;5.436;2023-05-13T02:40:22;13.13;;;8.25;;
74044;SDS011;62389;51.412;5.436;2023-05-13T02:42:47;11.73;;;7.72;;
74044;SDS011;62389;51.412;5.436;2023-05-13T02:45:13;11.07;;;7.50;;
74044;SDS011;62389;51.412;5.436;2023-05-13T02:47:38;10.02;;;7.95;;
74044;SDS011;62389;51.412;5.436;2023-05-13T02:50:04;11.55;;;7.80;;
74044;SDS011;62389;51.412;5.436;2023-05-13T02:52:32;11.25;;;8.75;;
74044;SDS011;62389;51.412;5.436;2023-05-13T02:54:59;10.90;;;8.25;;
74044;SDS011;62389;51.412;5.436;2023-05-13T02:57:25;13.00;;;8.18;;
74044;SDS011;62389;51.412;5.436;2023-05-13T02:59:51;14.77;;;7.80;;
74044;SDS011;62389;51.412;5.436;2023-05-13T03:02:16;10.32;;;7.60;;
74044;SDS011;62389;51.412;5.436;2023-05-13T03:04:41;12.13;;;8.27;;
74044;SDS011;62389;51.412;5.436;2023-05-13T03:07:07;11.27;;;7.82;;
74044;SDS011;62389;51.412;5.436;2023-05-13T03:09:32;12.20;;;7.25;;
74044;SDS011;62389;51.412;5.436;2023-05-13T03:11:59;9.88;;;6.43;;
74044;SDS011;62389;51.412;5.436;2023-05-13T03:14:24;9.98;;;6.55;;
74044;SDS011;62389;51.412;5.436;2023-05-13T03:16:50;12.85;;;7.72;;
74044;SDS011;62389;51.412;5.436;2023-05-13T03:19:15;10.43;;;7.28;;
74044;SDS011;62389;51.412;5.436;2023-05-13T03:21:41;9.23;;;7.10;;
74044;SDS011;62389;51.412;5.436;2023-05-13T03:24:06;10.57;;;7.00;;
74044;SDS011;62389;51.412;5.436;2023-05-13T03:26:31;10.32;;;7.22;;
74044;SDS011;62389;51.412;5.436;2023-05-13T03:28:57;10.45;;;7.35;;
74044;SDS011;62389;51.412;5.436;2023-05-13T03:31:22;11.10;;;7.10;;
74044;SDS011;62389;51.412;5.436;2023-05-13T03:33:48;14.15;;;7.70;;
74044;SDS011;62389;51.412;5.436;2023-05-13T03:36:13;11.68;;;7.80;;
74044;SDS011;62389;51.412;5.436;2023-05-13T03:38:38;11.45;;;7.55;;
74044;SDS011;62389;51.412;5.436;2023-05-13T03:41:04;10.60;;;6.82;;
74044;SDS011;62389;51.412;5.436;2023-05-13T03:43:29;8.88;;;6.68;;
74044;SDS011;62389;51.412;5.436;2023-05-13T03:45:54;10.20;;;6.78;;
74044;SDS011;62389;51.412;5.436;2023-05-13T03:48:20;11.57;;;7.03;;
74044;SDS011;62389;51.412;5.436;2023-05-13T03:50:45;11.13;;;6.90;;
74044;SDS011;62389;51.412;5.436;2023-05-13T03:53:10;9.35;;;7.05;;
74044;SDS011;62389;51.412;5.436;2023-05-13T03:55:36;10.23;;;7.68;;
74044;SDS011;62389;51.412;5.436;2023-05-13T03:58:09;12.95;;;7.45;;
74044;SDS011;62389;51.412;5.436;2023-05-13T04:00:39;9.70;;;6.88;;
74044;SDS011;62389;51.412;5.436;2023-05-13T04:03:04;13.23;;;7.25;;
74044;SDS011;62389;51.412;5.436;2023-05-13T04:05:30;8.93;;;6.53;;
74044;SDS011;62389;51.412;5.436;2023-05-13T04:07:56;11.75;;;7.25;;
74044;SDS011;62389;51.412;5.436;2023-05-13T04:10:21;10.88;;;7.10;;
74044;SDS011;62389;51.412;5.436;2023-05-13T04:12:46;9.68;;;6.57;;
74044;SDS011;62389;51.412;5.436;2023-05-13T04:15:12;11.80;;;7.40;;
74044;SDS011;62389;51.412;5.436;2023-05-13T04:17:37;9.40;;;6.53;;
74044;SDS011;62389;51.412;5.436;2023-05-13T04:20:02;9.80;;;7.28;;
74044;SDS011;62389;51.412;5.436;2023-05-13T04:22:28;10.15;;;7.18;;
74044;SDS011;62389;51.412;5.436;2023-05-13T04:24:53;12.32;;;7.25;;
74044;SDS011;62389;51.412;5.436;2023-05-13T04:27:21;11.75;;;7.13;;
74044;SDS011;62389;51.412;5.436;2023-05-13T04:29:47;10.85;;;7.30;;
74044;SDS011;62389;51.412;5.436;2023-05-13T04:32:13;9.30;;;7.20;;
74044;SDS011;62389;51.412;5.436;2023-05-13T04:34:41;9.88;;;7.10;;
74044;SDS011;62389;51.412;5.436;2023-05-13T04:37:07;10.43;;;7.35;;
74044;SDS011;62389;51.412;5.436;2023-05-13T04:39:32;14.88;;;7.43;;
74044;SDS011;62389;51.412;5.436;2023-05-13T04:41:58;12.85;;;7.97;;
74044;SDS011;62389;51.412;5.436;2023-05-13T04:44:23;12.73;;;7.95;;
74044;SDS011;62389;51.412;5.436;2023-05-13T04:46:48;9.75;;;7.00;;
74044;SDS011;62389;51.412;5.436;2023-05-13T04:49:14;9.98;;;7.20;;
74044;SDS011;62389;51.412;5.436;2023-05-13T04:51:39;13.95;;;8.20;;
74044;SDS011;62389;51.412;5.436;2023-05-13T04:54:04;10.75;;;8.07;;
74044;SDS011;62389;51.412;5.436;2023-05-13T04:56:30;11.23;;;7.85;;
74044;SDS011;62389;51.412;5.436;2023-05-13T04:58:55;12.90;;;7.82;;
74044;SDS011;62389;51.412;5.436;2023-05-13T05:01:21;11.70;;;7.53;;
74044;SDS011;62389;51.412;5.436;2023-05-13T05:03:46;11.15;;;8.02;;
74044;SDS011;62389;51.412;5.436;2023-05-13T05:06:11;11.15;;;8.32;;
74044;SDS011;62389;51.412;5.436;2023-05-13T05:08:37;12.15;;;7.80;;
74044;SDS011;62389;51.412;5.436;2023-05-13T05:11:02;13.85;;;7.93;;
74044;SDS011;62389;51.412;5.436;2023-05-13T05:13:27;13.52;;;8.90;;
74044;SDS011;62389;51.412;5.436;2023-05-13T05:15:53;15.77;;;8.32;;
74044;SDS011;62389;51.412;5.436;2023-05-13T05:18:18;11.38;;;8.18;;
74044;SDS011;62389;51.412;5.436;2023-05-13T05:20:43;12.40;;;8.23;;
74044;SDS011;62389;51.412;5.436;2023-05-13T05:23:09;13.27;;;8.02;;
74044;SDS011;62389;51.412;5.436;2023-05-13T05:25:35;12.63;;;7.93;;
74044;SDS011;62389;51.412;5.436;2023-05-13T05:28:00;10.90;;;7.65;;
74044;SDS011;62389;51.412;5.436;2023-05-13T05:30:29;12.15;;;8.85;;
74044;SDS011;62389;51.412;5.436;2023-05-13T05:32:56;11.07;;;8.35;;
74044;SDS011;62389;51.412;5.436;2023-05-13T05:35:22;14.30;;;8.57;;
74044;SDS011;62389;51.412;5.436;2023-05-13T05:37:47;12.30;;;8.88;;
74044;SDS011;62389;51.412;5.436;2023-05-13T05:40:13;13.02;;;9.25;;
74044;SDS011;62389;51.412;5.436;2023-05-13T05:42:38;14.35;;;8.60;;
74044;SDS011;62389;51.412;5.436;2023-05-13T05:45:04;12.73;;;8.82;;
74044;SDS011;62389;51.412;5.436;2023-05-13T05:47:29;12.25;;;8.32;;
74044;SDS011;62389;51.412;5.436;2023-05-13T05:49:55;12.02;;;8.75;;
74044;SDS011;62389;51.412;5.436;2023-05-13T05:52:20;12.70;;;8.52;;
74044;SDS011;62389;51.412;5.436;2023-05-13T05:54:45;11.85;;;8.25;;
74044;SDS011;62389;51.412;5.436;2023-05-13T05:57:11;14.15;;;8.95;;
74044;SDS011;62389;51.412;5.436;2023-05-13T05:59:36;14.48;;;9.27;;
74044;SDS011;62389;51.412;5.436;2023-05-13T06:02:01;14.38;;;8.80;;
74044;SDS011;62389;51.412;5.436;2023-05-13T06:04:27;11.50;;;8.73;;
74044;SDS011;62389;51.412;5.436;2023-05-13T06:06:52;13.48;;;8.60;;
74044;SDS011;62389;51.412;5.436;2023-05-13T06:09:17;12.90;;;9.13;;
74044;SDS011;62389;51.412;5.436;2023-05-13T06:11:43;11.73;;;7.93;;
74044;SDS011;62389;51.412;5.436;2023-05-13T06:14:08;15.10;;;9.07;;
74044;SDS011;62389;51.412;5.436;2023-05-13T06:16:33;10.65;;;8.00;;
74044;SDS011;62389;51.412;5.436;2023-05-13T06:18:59;12.07;;;8.90;;
74044;SDS011;62389;51.412;5.436;2023-05-13T06:21:24;11.32;;;8.73;;
74044;SDS011;62389;51.412;5.436;2023-05-13T06:23:50;13.88;;;8.73;;
74044;SDS011;62389;51.412;5.436;2023-05-13T06:26:15;14.43;;;9.65;;
74044;SDS011;62389;51.412;5.436;2023-05-13T06:28:40;13.93;;;8.48;;
74044;SDS011;62389;51.412;5.436;2023-05-13T06:31:06;12.68;;;8.88;;
74044;SDS011;62389;51.412;5.436;2023-05-13T06:33:31;13.45;;;9.05;;
74044;SDS011;62389;51.412;5.436;2023-05-13T06:35:57;12.50;;;8.20;;
74044;SDS011;62389;51.412;5.436;2023-05-13T06:38:22;12.80;;;8.80;;
74044;SDS011;62389;51.412;5.436;2023-05-13T06:40:48;13.02;;;9.45;;
74044;SDS011;62389;51.412;5.436;2023-05-13T06:43:13;16.00;;;9.57;;
74044;SDS011;62389;51.412;5.436;2023-05-13T06:45:40;13.05;;;8.90;;
74044;SDS011;62389;51.412;5.436;2023-05-13T06:48:06;12.75;;;8.90;;
74044;SDS011;62389;51.412;5.436;2023-05-13T06:50:32;11.05;;;8.52;;
74044;SDS011;62389;51.412;5.436;2023-05-13T06:52:57;11.18;;;8.52;;
74044;SDS011;62389;51.412;5.436;2023-05-13T06:55:22;12.35;;;9.18;;
74044;SDS011;62389;51.412;5.436;2023-05-13T06:57:48;14.43;;;8.90;;
74044;SDS011;62389;51.412;5.436;2023-05-13T07:00:14;13.82;;;9.38;;
74044;SDS011;62389;51.412;5.436;2023-05-13T07:02:39;15.32;;;9.70;;
74044;SDS011;62389;51.412;5.436;2023-05-13T07:05:06;11.40;;;8.45;;
74044;SDS011;62389;51.412;5.436;2023-05-13T07:07:32;14.80;;;9.73;;
74044;SDS011;62389;51.412;5.436;2023-05-13T07:09:57;14.27;;;9.30;;
74044;SDS011;62389;51.412;5.436;2023-05-13T07:12:23;15.45;;;9.73;;
74044;SDS011;62389;51.412;5.436;2023-05-13T07:14:48;16.67;;;9.95;;
74044;SDS011;62389;51.412;5.436;2023-05-13T07:17:13;13.10;;;9.55;;
74044;SDS011;62389;51.412;5.436;2023-05-13T07:19:39;14.63;;;10.55;;
74044;SDS011;62389;51.412;5.436;2023-05-13T07:22:04;11.80;;;9.65;;
74044;SDS011;62389;51.412;5.436;2023-05-13T07:24:29;13.02;;;8.52;;
74044;SDS011;62389;51.412;5.436;2023-05-13T07:26:55;14.95;;;9.50;;
74044;SDS011;62389;51.412;5.436;2023-05-13T07:29:20;13.73;;;10.15;;
74044;SDS011;62389;51.412;5.436;2023-05-13T07:31:45;18.60;;;10.40;;
74044;SDS011;62389;51.412;5.436;2023-05-13T07:34:11;16.55;;;10.10;;
74044;SDS011;62389;51.412;5.436;2023-05-13T07:36:36;17.15;;;10.27;;
74044;SDS011;62389;51.412;5.436;2023-05-13T07:39:01;13.95;;;9.32;;
74044;SDS011;62389;51.412;5.436;2023-05-13T07:41:27;15.10;;;10.50;;
74044;SDS011;62389;51.412;5.436;2023-05-13T07:43:52;15.48;;;9.93;;
74044;SDS011;62389;51.412;5.436;2023-05-13T07:46:18;14.00;;;10.07;;
74044;SDS011;62389;51.412;5.436;2023-05-13T07:48:43;14.13;;;9.73;;
74044;SDS011;62389;51.412;5.436;2023-05-13T07:51:09;14.60;;;9.70;;
74044;SDS011;62389;51.412;5.436;2023-05-13T07:53:34;17.67;;;10.73;;
74044;SDS011;62389;51.412;5.436;2023-05-13T07:56:00;15.48;;;10.32;;
74044;SDS011;62389;51.412;5.436;2023-05-13T07:58:26;14.85;;;10.25;;
74044;SDS011;62389;51.412;5.436;2023-05-13T08:00:51;13.77;;;10.45;;
74044;SDS011;62389;51.412;5.436;2023-05-13T08:03:17;12.55;;;9.27;;
74044;SDS011;62389;51.412;5.436;2023-05-13T08:05:42;14.52;;;10.13;;
74044;SDS011;62389;51.412;5.436;2023-05-13T08:08:08;13.23;;;10.02;;
74044;SDS011;62389;51.412;5.436;2023-05-13T08:10:33;14.40;;;10.20;;
74044;SDS011;62389;51.412;5.436;2023-05-13T08:12:59;17.02;;;9.93;;
74044;SDS011;62389;51.412;5.436;2023-05-13T08:15:25;14.68;;;10.00;;
74044;SDS011;62389;51.412;5.436;2023-05-13T08:17:51;13.05;;;9.38;;
74044;SDS011;62389;51.412;5.436;2023-05-13T08:20:17;14.25;;;9.82;;
74044;SDS011;62389;51.412;5.436;2023-05-13T08:22:44;14.40;;;9.82;;
74044;SDS011;62389;51.412;5.436;2023-05-13T08:25:09;14.77;;;9.82;;
74044;SDS011;62389;51.412;5.436;2023-05-13T08:27:37;14.60;;;9.77;;
74044;SDS011;62389;51.412;5.436;2023-05-13T08:30:03;13.05;;;9.38;;
74044;SDS011;62389;51.412;5.436;2023-05-13T08:32:29;16.08;;;10.50;;
74044;SDS011;62389;51.412;5.436;2023-05-13T08:34:54;13.95;;;10.35;;
74044;SDS011;62389;51.412;5.436;2023-05-13T08:37:20;15.35;;;10.07;;
74044;SDS011;62389;51.412;5.436;2023-05-13T08:39:45;15.27;;;10.15;;
74044;SDS011;62389;51.412;5.436;2023-05-13T08:42:11;13.00;;;9.38;;
74044;SDS011;62389;51.412;5.436;2023-05-13T08:44:43;14.50;;;10.48;;
74044;SDS011;62389;51.412;5.436;2023-05-13T08:47:19;13.30;;;9.13;;
74044;SDS011;62389;51.412;5.436;2023-05-13T08:50:09;11.55;;;9.07;;
74044;SDS011;62389;51.412;5.436;2023-05-13T08:55:01;12.48;;;8.00;;
74044;SDS011;62389;51.412;5.436;2023-05-13T08:57:29;11.75;;;8.38;;
74044;SDS011;62389;51.412;5.436;2023-05-13T08:59:54;14.45;;;8.75;;
74044;SDS011;62389;51.412;5.436;2023-05-13T09:02:19;11.00;;;7.88;;
74044;SDS011;62389;51.412;5.436;2023-05-13T09:04:45;10.88;;;8.63;;
74044;SDS011;62389;51.412;5.436;2023-05-13T09:07:17;11.80;;;8.60;;
74044;SDS011;62389;51.412;5.436;2023-05-13T09:09:42;12.02;;;8.50;;
74044;SDS011;62389;51.412;5.436;2023-05-13T09:12:08;10.48;;;7.60;;
74044;SDS011;62389;51.412;5.436;2023-05-13T09:14:33;11.07;;;7.25;;
74044;SDS011;62389;51.412;5.436;2023-05-13T09:17:02;9.02;;;7.05;;
74044;SDS011;62389;51.412;5.436;2023-05-13T09:19:27;10.57;;;7.28;;
74044;SDS011;62389;51.412;5.436;2023-05-13T09:21:53;10.98;;;8.10;;
74044;SDS011;62389;51.412;5.436;2023-05-13T09:24:18;9.25;;;6.60;;
74044;SDS011;62389;51.412;5.436;2023-05-13T09:26:46;10.73;;;6.28;;
74044;SDS011;62389;51.412;5.436;2023-05-13T09:29:13;8.68;;;6.57;;
74044;SDS011;62389;51.412;5.436;2023-05-13T09:31:40;10.25;;;6.85;;
74044;SDS011;62389;51.412;5.436;2023-05-13T09:34:06;9.38;;;6.75;;
74044;SDS011;62389;51.412;5.436;2023-05-13T09:36:32;9.02;;;5.70;;
74044;SDS011;62389;51.412;5.436;2023-05-13T09:39:01;12.02;;;5.80;;
74044;SDS011;62389;51.412;5.436;2023-05-13T09:41:27;9.63;;;5.85;;
74044;SDS011;62389;51.412;5.436;2023-05-13T09:43:54;7.28;;;5.47;;
74044;SDS011;62389;51.412;5.436;2023-05-13T09:46:20;6.90;;;5.28;;
74044;SDS011;62389;51.412;5.436;2023-05-13T09:48:45;9.20;;;5.40;;
74044;SDS011;62389;51.412;5.436;2023-05-13T09:51:11;9.52;;;6.13;;
74044;SDS011;62389;51.412;5.436;2023-05-13T09:53:36;8.93;;;6.43;;
74044;SDS011;62389;51.412;5.436;2023-05-13T09:56:01;10.43;;;6.60;;
74044;SDS011;62389;51.412;5.436;2023-05-13T09:58:27;8.52;;;5.90;;
74044;SDS011;62389;51.412;5.436;2023-05-13T10:00:54;8.13;;;5.38;;
74044;SDS011;62389;51.412;5.436;2023-05-13T10:03:20;7.65;;;5.60;;
74044;SDS011;62389;51.412;5.436;2023-05-13T10:05:46;8.75;;;5.88;;
74044;SDS011;62389;51.412;5.436;2023-05-13T10:08:14;9.25;;;6.40;;
74044;SDS011;62389;51.412;5.436;2023-05-13T10:10:41;9.20;;;6.18;;
74044;SDS011;62389;51.412;5.436;2023-05-13T10:13:11;8.80;;;5.63;;
74044;SDS011;62389;51.412;5.436;2023-05-13T10:15:48;9.02;;;5.55;;
74044;SDS011;62389;51.412;5.436;2023-05-13T10:18:18;10.45;;;6.32;;
74044;SDS011;62389;51.412;5.436;2023-05-13T10:20:44;8.23;;;6.10;;
74044;SDS011;62389;51.412;5.436;2023-05-13T10:25:36;9.77;;;5.93;;
74044;SDS011;62389;51.412;5.436;2023-05-13T10:28:02;7.80;;;5.35;;
74044;SDS011;62389;51.412;5.436;2023-05-13T10:32:56;7.60;;;5.90;;
74044;SDS011;62389;51.412;5.436;2023-05-13T10:35:26;9.15;;;6.13;;
74044;SDS011;62389;51.412;5.436;2023-05-13T10:38:06;7.53;;;5.75;;
74044;SDS011;62389;51.412;5.436;2023-05-13T10:40:43;11.50;;;5.93;;
74044;SDS011;62389;51.412;5.436;2023-05-13T10:43:28;9.20;;;5.68;;
74044;SDS011;62389;51.412;5.436;2023-05-13T10:45:59;11.30;;;5.72;;
74044;SDS011;62389;51.412;5.436;2023-05-13T10:48:26;8.85;;;5.70;;
74044;SDS011;62389;51.412;5.436;2023-05-13T10:51:06;8.65;;;5.90;;
74044;SDS011;62389;51.412;5.436;2023-05-13T10:53:36;11.98;;;5.50;;
74044;SDS011;62389;51.412;5.436;2023-05-13T10:56:10;7.80;;;5.45;;
74044;SDS011;62389;51.412;5.436;2023-05-13T10:58:36;9.85;;;5.38;;
74044;SDS011;62389;51.412;5.436;2023-05-13T11:01:12;6.93;;;5.18;;
74044;SDS011;62389;51.412;5.436;2023-05-13T11:03:38;15.52;;;5.28;;
74044;SDS011;62389;51.412;5.436;2023-05-13T11:06:27;10.27;;;4.90;;
74044;SDS011;62389;51.412;5.436;2023-05-13T11:11:35;7.25;;;5.25;;
74044;SDS011;62389;51.412;5.436;2023-05-13T11:14:04;8.88;;;5.68;;
74044;SDS011;62389;51.412;5.436;2023-05-13T11:16:46;6.32;;;4.82;;
74044;SDS011;62389;51.412;5.436;2023-05-13T11:19:20;7.45;;;5.07;;
74044;SDS011;62389;51.412;5.436;2023-05-13T11:21:48;8.90;;;4.72;;
74044;SDS011;62389;51.412;5.436;2023-05-13T11:24:18;4.95;;;3.83;;
74044;SDS011;62389;51.412;5.436;2023-05-13T11:26:46;7.25;;;3.97;;
74044;SDS011;62389;51.412;5.436;2023-05-13T11:29:14;6.80;;;4.55;;
74044;SDS011;62389;51.412;5.436;2023-05-13T11:31:44;8.00;;;4.45;;
74044;SDS011;62389;51.412;5.436;2023-05-13T11:34:17;8.50;;;4.68;;
74044;SDS011;62389;51.412;5.436;2023-05-13T11:36:44;6.40;;;4.20;;
74044;SDS011;62389;51.412;5.436;2023-05-13T11:39:20;7.72;;;3.90;;
74044;SDS011;62389;51.412;5.436;2023-05-13T11:44:16;7.28;;;3.80;;
74044;SDS011;62389;51.412;5.436;2023-05-13T11:49:32;7.28;;;3.28;;
74044;SDS011;62389;51.412;5.436;2023-05-13T11:52:18;5.13;;;3.22;;
74044;SDS011;62389;51.412;5.436;2023-05-13T11:54:47;4.40;;;3.22;;
74044;SDS011;62389;51.412;5.436;2023-05-13T12:02:14;5.38;;;3.45;;
74044;SDS011;62389;51.412;5.436;2023-05-13T12:04:40;6.05;;;3.03;;
74044;SDS011;62389;51.412;5.436;2023-05-13T12:07:05;5.53;;;3.40;;
74044;SDS011;62389;51.412;5.436;2023-05-13T12:09:35;4.15;;;3.25;;
74044;SDS011;62389;51.412;5.436;2023-05-13T12:12:01;5.28;;;3.33;;
74044;SDS011;62389;51.412;5.436;2023-05-13T12:16:53;4.47;;;3.08;;
74044;SDS011;62389;51.412;5.436;2023-05-13T12:19:20;4.35;;;2.83;;
74044;SDS011;62389;51.412;5.436;2023-05-13T12:21:45;6.78;;;3.40;;
74044;SDS011;62389;51.412;5.436;2023-05-13T12:24:17;5.00;;;3.25;;
74044;SDS011;62389;51.412;5.436;2023-05-13T12:26:43;4.40;;;3.50;;
74044;SDS011;62389;51.412;5.436;2023-05-13T12:29:09;4.78;;;3.28;;
74044;SDS011;62389;51.412;5.436;2023-05-13T12:31:34;6.43;;;3.65;;
74044;SDS011;62389;51.412;5.436;2023-05-13T12:33:59;5.88;;;3.00;;
74044;SDS011;62389;51.412;5.436;2023-05-13T12:36:25;8.38;;;3.20;;
74044;SDS011;62389;51.412;5.436;2023-05-13T12:39:09;6.68;;;3.05;;
74044;SDS011;62389;51.412;5.436;2023-05-13T12:41:38;5.55;;;3.33;;
74044;SDS011;62389;51.412;5.436;2023-05-13T12:44:09;4.38;;;2.97;;
74044;SDS011;62389;51.412;5.436;2023-05-13T12:46:37;4.82;;;3.10;;
74044;SDS011;62389;51.412;5.436;2023-05-13T12:49:04;13.70;;;4.20;;
74044;SDS011;62389;51.412;5.436;2023-05-13T12:51:30;21.08;;;4.00;;
74044;SDS011;62389;51.412;5.436;2023-05-13T12:53:59;6.03;;;3.40;;
74044;SDS011;62389;51.412;5.436;2023-05-13T12:56:24;6.25;;;3.60;;
74044;SDS011;62389;51.412;5.436;2023-05-13T12:58:50;4.15;;;3.08;;
74044;SDS011;62389;51.412;5.436;2023-05-13T13:01:17;4.03;;;3.10;;
74044;SDS011;62389;51.412;5.436;2023-05-13T13:03:44;4.47;;;3.50;;
74044;SDS011;62389;51.412;5.436;2023-05-13T13:06:10;8.35;;;3.40;;
74044;SDS011;62389;51.412;5.436;2023-05-13T13:08:36;4.63;;;3.20;;
74044;SDS011;62389;51.412;5.436;2023-05-13T13:11:02;4.93;;;3.47;;
74044;SDS011;62389;51.412;5.436;2023-05-13T13:13:28;6.38;;;3.22;;
74044;SDS011;62389;51.412;5.436;2023-05-13T13:15:53;4.28;;;2.70;;
74044;SDS011;62389;51.412;5.436;2023-05-13T13:18:19;3.85;;;3.08;;
74044;SDS011;62389;51.412;5.436;2023-05-13T13:20:44;4.82;;;3.17;;
74044;SDS011;62389;51.412;5.436;2023-05-13T13:23:10;4.63;;;2.97;;
74044;SDS011;62389;51.412;5.436;2023-05-13T13:25:35;5.70;;;3.60;;
74044;SDS011;62389;51.412;5.436;2023-05-13T13:28:00;4.47;;;3.25;;
74044;SDS011;62389;51.412;5.436;2023-05-13T13:30:26;4.60;;;3.00;;
74044;SDS011;62389;51.412;5.436;2023-05-13T13:32:51;5.80;;;3.08;;
74044;SDS011;62389;51.412;5.436;2023-05-13T13:35:17;5.32;;;2.92;;
74044;SDS011;62389;51.412;5.436;2023-05-13T13:37:42;5.57;;;3.00;;
74044;SDS011;62389;51.412;5.436;2023-05-13T13:40:08;5.70;;;3.35;;
74044;SDS011;62389;51.412;5.436;2023-05-13T13:42:34;21.17;;;4.07;;
74044;SDS011;62389;51.412;5.436;2023-05-13T13:44:59;5.88;;;3.20;;
74044;SDS011;62389;51.412;5.436;2023-05-13T13:47:26;5.55;;;3.45;;
74044;SDS011;62389;51.412;5.436;2023-05-13T13:49:51;4.82;;;3.13;;
74044;SDS011;62389;51.412;5.436;2023-05-13T13:52:17;7.70;;;3.40;;
74044;SDS011;62389;51.412;5.436;2023-05-13T13:54:42;4.65;;;2.88;;
74044;SDS011;62389;51.412;5.436;2023-05-13T13:57:07;6.82;;;3.28;;
74044;SDS011;62389;51.412;5.436;2023-05-13T13:59:33;5.13;;;3.08;;
74044;SDS011;62389;51.412;5.436;2023-05-13T14:01:58;6.10;;;2.97;;
74044;SDS011;62389;51.412;5.436;2023-05-13T14:04:24;4.57;;;3.35;;
74044;SDS011;62389;51.412;5.436;2023-05-13T14:06:52;5.40;;;2.97;;
74044;SDS011;62389;51.412;5.436;2023-05-13T14:09:19;6.22;;;3.08;;
74044;SDS011;62389;51.412;5.436;2023-05-13T14:11:44;5.30;;;3.20;;
74044;SDS011;62389;51.412;5.436;2023-05-13T14:14:10;4.85;;;3.47;;
74044;SDS011;62389;51.412;5.436;2023-05-13T14:16:35;4.18;;;3.20;;
74044;SDS011;62389;51.412;5.436;2023-05-13T14:19:00;4.93;;;2.92;;
74044;SDS011;62389;51.412;5.436;2023-05-13T14:21:26;4.55;;;2.97;;
74044;SDS011;62389;51.412;5.436;2023-05-13T14:23:51;7.82;;;3.47;;
74044;SDS011;62389;51.412;5.436;2023-05-13T14:26:17;5.20;;;2.90;;
74044;SDS011;62389;51.412;5.436;2023-05-13T14:28:42;3.17;;;2.45;;
74044;SDS011;62389;51.412;5.436;2023-05-13T14:31:08;5.88;;;2.53;;
74044;SDS011;62389;51.412;5.436;2023-05-13T14:33:34;4.72;;;2.70;;
74044;SDS011;62389;51.412;5.436;2023-05-13T14:35:59;4.88;;;2.83;;
74044;SDS011;62389;51.412;5.436;2023-05-13T14:38:25;4.97;;;3.20;;
74044;SDS011;62389;51.412;5.436;2023-05-13T14:40:51;5.43;;;2.90;;
74044;SDS011;62389;51.412;5.436;2023-05-13T14:43:19;4.68;;;3.00;;
74044;SDS011;62389;51.412;5.436;2023-05-13T14:45:45;6.13;;;2.97;;
74044;SDS011;62389;51.412;5.436;2023-05-13T14:48:10;5.20;;;3.05;;
74044;SDS011;62389;51.412;5.436;2023-05-13T14:50:36;7.30;;;2.90;;
74044;SDS011;62389;51.412;5.436;2023-05-13T14:53:01;4.32;;;2.95;;
74044;SDS011;62389;51.412;5.436;2023-05-13T14:55:27;5.13;;;3.20;;
74044;SDS011;62389;51.412;5.436;2023-05-13T14:57:52;4.32;;;2.90;;
74044;SDS011;62389;51.412;5.436;2023-05-13T15:00:18;4.05;;;2.75;;
74044;SDS011;62389;51.412;5.436;2023-05-13T15:02:43;5.70;;;3.05;;
74044;SDS011;62389;51.412;5.436;2023-05-13T15:05:09;4.75;;;2.90;;
74044;SDS011;62389;51.412;5.436;2023-05-13T15:07:35;4.93;;;3.10;;